気象予報士の航空気象 岩手で雹(ひょう)

*All archives   *Admin

2010.06.05 (Sat)

岩手で雹(ひょう)

岩手県で雹が降ったようです。


花巻空港のMETAR時系列の中では、雷雨が記録されています。


上空には寒気があり、これが影響したようです。


RJSI 050200Z 17004KT 110V220 9999 FEW030 SCT070 BKN/// 18/12 Q1013

RJSI 050300Z 16005KT 120V200 9999 TS FEW030CB SCT070 BKN/// 19/13 Q1012

RJSI 050342Z 23008KT 200V330 9999 FEW020 FEW030TCU SCT080 BKN/// 20/13 Q1012 RETS RMK 1CU020 1TCU030 3AC080 A2990 TCU 15KM NE AND 5KM SW-NW MOV UNKN

RJSI 050400Z 23006KT 190V280 9999 FEW030 BKN/// 20/13 Q1012 RETS

RJSI 050440Z 22004KT 120V270 9999 TS FEW020 FEW030CB SCT050 BKN/// 21/12 Q1012 RMK 2CU020 1CB030 4CU050 A2988 FBL TS 15KM NE MOV UNKN

RJSI 050500Z 16007KT 090V200 9999 TS FEW020CB SCT030 BKN050 20/13 Q1011

RJSI 050600Z 15007KT 110V180 9999 -TSRA FEW005 FEW015CB SCT025 BKN050 16/13 Q1012

RJSI 050628Z 17005KT 130V190 9999 -SHRA FEW010 SCT025 BKN050 15/13 Q1012 RETS RMK 1ST010 3CU025 5CU050 A2990

RJSI 050700Z 17003KT 120V210 9999 -SHRA FEW010 SCT025 BKN050 16/13 Q1012 RETS

RJSI 050800Z 22005KT 170V250 9999 FEW010 SCT025 BKN080 16/13 Q1012


AUPQ35_05JUN10.jpg





ブログランキングに参加しています。
にほんブログ村 環境ブログ 天気・気象学へ
にほんブログ村
応援クリックをおねがします。


以下、アフィリエイトサイトです。




スポンサーサイト
22:18  |  気象・天気  |  TB(0)  |  CM(0)  |  EDIT  |  Top↑

コメントを投稿する


 管理者だけに表示  (非公開コメント投稿可能)

▲PageTop

この記事のトラックバックURL

→http://weathereucalyptus.blog115.fc2.com/tb.php/507-49074a4d
この記事にトラックバックする(FC2ブログユーザー)

この記事へのトラックバック

▲PageTop

 | BLOGTOP |